sensor_id;sensor_type;location;lat;lon;timestamp;P1;durP1;ratioP1;P2;durP2;ratioP2
74415;SDS011;62850;42.428;25.618;2023-06-22T00:02:01;7.93;;;5.57;;
74415;SDS011;62850;42.428;25.618;2023-06-22T00:04:27;9.90;;;6.28;;
74415;SDS011;62850;42.428;25.618;2023-06-22T00:06:53;11.07;;;6.35;;
74415;SDS011;62850;42.428;25.618;2023-06-22T00:09:18;9.27;;;5.75;;
74415;SDS011;62850;42.428;25.618;2023-06-22T00:11:44;9.23;;;5.97;;
74415;SDS011;62850;42.428;25.618;2023-06-22T00:14:10;8.45;;;5.30;;
74415;SDS011;62850;42.428;25.618;2023-06-22T00:16:37;12.20;;;5.53;;
74415;SDS011;62850;42.428;25.618;2023-06-22T00:19:03;9.88;;;5.68;;
74415;SDS011;62850;42.428;25.618;2023-06-22T00:21:29;9.48;;;6.90;;
74415;SDS011;62850;42.428;25.618;2023-06-22T00:23:56;10.35;;;6.20;;
74415;SDS011;62850;42.428;25.618;2023-06-22T00:26:22;10.15;;;6.07;;
74415;SDS011;62850;42.428;25.618;2023-06-22T00:28:48;9.90;;;6.32;;
74415;SDS011;62850;42.428;25.618;2023-06-22T00:31:15;9.55;;;6.55;;
74415;SDS011;62850;42.428;25.618;2023-06-22T00:33:41;10.07;;;6.40;;
74415;SDS011;62850;42.428;25.618;2023-06-22T00:36:07;8.25;;;5.90;;
74415;SDS011;62850;42.428;25.618;2023-06-22T00:38:38;8.40;;;6.10;;
74415;SDS011;62850;42.428;25.618;2023-06-22T00:41:05;9.27;;;6.30;;
74415;SDS011;62850;42.428;25.618;2023-06-22T00:43:32;10.18;;;7.13;;
74415;SDS011;62850;42.428;25.618;2023-06-22T00:46:00;9.48;;;6.50;;
74415;SDS011;62850;42.428;25.618;2023-06-22T00:48:26;8.65;;;6.57;;
74415;SDS011;62850;42.428;25.618;2023-06-22T00:50:51;10.20;;;6.25;;
74415;SDS011;62850;42.428;25.618;2023-06-22T00:53:18;10.57;;;7.05;;
74415;SDS011;62850;42.428;25.618;2023-06-22T00:55:45;10.60;;;5.95;;
74415;SDS011;62850;42.428;25.618;2023-06-22T00:58:17;10.05;;;6.93;;
74415;SDS011;62850;42.428;25.618;2023-06-22T01:00:46;8.85;;;5.78;;
74415;SDS011;62850;42.428;25.618;2023-06-22T01:03:13;8.98;;;6.60;;
74415;SDS011;62850;42.428;25.618;2023-06-22T01:05:39;9.45;;;6.43;;
74415;SDS011;62850;42.428;25.618;2023-06-22T01:11:12;9.70;;;6.60;;
74415;SDS011;62850;42.428;25.618;2023-06-22T01:14:27;12.02;;;7.57;;
74415;SDS011;62850;42.428;25.618;2023-06-22T01:16:40;9.80;;;6.55;;
74415;SDS011;62850;42.428;25.618;2023-06-22T01:22:20;11.48;;;8.85;;
74415;SDS011;62850;42.428;25.618;2023-06-22T01:24:57;14.05;;;10.48;;
74415;SDS011;62850;42.428;25.618;2023-06-22T01:27:39;19.58;;;13.18;;
74415;SDS011;62850;42.428;25.618;2023-06-22T01:30:13;11.25;;;8.63;;
74415;SDS011;62850;42.428;25.618;2023-06-22T01:32:42;12.75;;;9.52;;
74415;SDS011;62850;42.428;25.618;2023-06-22T01:35:09;10.82;;;8.07;;
74415;SDS011;62850;42.428;25.618;2023-06-22T01:37:37;12.20;;;8.90;;
74415;SDS011;62850;42.428;25.618;2023-06-22T01:40:04;13.80;;;8.15;;
74415;SDS011;62850;42.428;25.618;2023-06-22T01:42:31;10.15;;;7.22;;
74415;SDS011;62850;42.428;25.618;2023-06-22T01:44:57;9.00;;;6.82;;
74415;SDS011;62850;42.428;25.618;2023-06-22T01:47:24;10.32;;;6.38;;
74415;SDS011;62850;42.428;25.618;2023-06-22T01:49:50;9.68;;;6.50;;
74415;SDS011;62850;42.428;25.618;2023-06-22T01:52:17;9.60;;;6.72;;
74415;SDS011;62850;42.428;25.618;2023-06-22T01:54:46;11.68;;;7.00;;
74415;SDS011;62850;42.428;25.618;2023-06-22T01:57:13;10.50;;;6.72;;
74415;SDS011;62850;42.428;25.618;2023-06-22T01:59:42;10.98;;;7.25;;
74415;SDS011;62850;42.428;25.618;2023-06-22T02:02:19;10.50;;;6.80;;
74415;SDS011;62850;42.428;25.618;2023-06-22T02:04:53;10.85;;;6.65;;
74415;SDS011;62850;42.428;25.618;2023-06-22T02:07:23;11.02;;;7.30;;
74415;SDS011;62850;42.428;25.618;2023-06-22T02:09:57;10.95;;;6.88;;
74415;SDS011;62850;42.428;25.618;2023-06-22T02:12:25;10.30;;;6.78;;
74415;SDS011;62850;42.428;25.618;2023-06-22T02:14:52;11.65;;;7.07;;
74415;SDS011;62850;42.428;25.618;2023-06-22T02:17:19;8.73;;;6.53;;
74415;SDS011;62850;42.428;25.618;2023-06-22T02:19:45;11.82;;;6.93;;
74415;SDS011;62850;42.428;25.618;2023-06-22T02:22:11;9.27;;;6.60;;
74415;SDS011;62850;42.428;25.618;2023-06-22T02:24:38;10.90;;;6.80;;
74415;SDS011;62850;42.428;25.618;2023-06-22T02:27:04;11.88;;;6.55;;
74415;SDS011;62850;42.428;25.618;2023-06-22T02:29:32;11.60;;;7.05;;
74415;SDS011;62850;42.428;25.618;2023-06-22T02:31:58;11.77;;;6.80;;
74415;SDS011;62850;42.428;25.618;2023-06-22T02:34:24;10.30;;;6.70;;
74415;SDS011;62850;42.428;25.618;2023-06-22T02:36:51;10.88;;;6.82;;
74415;SDS011;62850;42.428;25.618;2023-06-22T02:39:19;10.82;;;7.18;;
74415;SDS011;62850;42.428;25.618;2023-06-22T02:41:51;9.80;;;6.72;;
74415;SDS011;62850;42.428;25.618;2023-06-22T02:44:18;11.20;;;7.70;;
74415;SDS011;62850;42.428;25.618;2023-06-22T02:46:45;12.77;;;6.93;;
74415;SDS011;62850;42.428;25.618;2023-06-22T02:49:11;10.45;;;6.88;;
74415;SDS011;62850;42.428;25.618;2023-06-22T02:51:41;12.68;;;6.50;;
74415;SDS011;62850;42.428;25.618;2023-06-22T02:54:09;11.27;;;7.07;;
74415;SDS011;62850;42.428;25.618;2023-06-22T02:56:36;11.73;;;7.15;;
74415;SDS011;62850;42.428;25.618;2023-06-22T02:59:06;13.88;;;7.13;;
74415;SDS011;62850;42.428;25.618;2023-06-22T03:01:32;10.63;;;7.05;;
74415;SDS011;62850;42.428;25.618;2023-06-22T03:06:28;11.70;;;6.65;;
74415;SDS011;62850;42.428;25.618;2023-06-22T03:08:59;10.80;;;6.82;;
74415;SDS011;62850;42.428;25.618;2023-06-22T03:11:26;11.70;;;7.78;;
74415;SDS011;62850;42.428;25.618;2023-06-22T03:13:52;11.40;;;6.88;;
74415;SDS011;62850;42.428;25.618;2023-06-22T03:16:18;20.52;;;7.00;;
74415;SDS011;62850;42.428;25.618;2023-06-22T03:18:44;10.88;;;7.57;;
74415;SDS011;62850;42.428;25.618;2023-06-22T03:21:10;11.90;;;7.68;;
74415;SDS011;62850;42.428;25.618;2023-06-22T03:23:36;10.20;;;7.40;;
74415;SDS011;62850;42.428;25.618;2023-06-22T03:26:03;13.55;;;7.50;;
74415;SDS011;62850;42.428;25.618;2023-06-22T03:28:29;11.77;;;7.70;;
74415;SDS011;62850;42.428;25.618;2023-06-22T03:30:57;11.05;;;7.07;;
74415;SDS011;62850;42.428;25.618;2023-06-22T03:33:23;13.32;;;7.80;;
74415;SDS011;62850;42.428;25.618;2023-06-22T03:35:49;12.63;;;7.60;;
74415;SDS011;62850;42.428;25.618;2023-06-22T03:38:16;11.18;;;6.72;;
74415;SDS011;62850;42.428;25.618;2023-06-22T03:40:43;12.90;;;7.68;;
74415;SDS011;62850;42.428;25.618;2023-06-22T03:43:08;12.98;;;6.90;;
74415;SDS011;62850;42.428;25.618;2023-06-22T03:45:35;9.80;;;7.00;;
74415;SDS011;62850;42.428;25.618;2023-06-22T03:48:03;12.57;;;7.00;;
74415;SDS011;62850;42.428;25.618;2023-06-22T03:50:29;11.55;;;7.63;;
74415;SDS011;62850;42.428;25.618;2023-06-22T03:52:55;10.23;;;7.57;;
74415;SDS011;62850;42.428;25.618;2023-06-22T03:55:21;10.20;;;7.03;;
74415;SDS011;62850;42.428;25.618;2023-06-22T03:57:46;10.63;;;7.35;;
74415;SDS011;62850;42.428;25.618;2023-06-22T04:00:12;11.27;;;6.72;;
74415;SDS011;62850;42.428;25.618;2023-06-22T04:02:40;11.52;;;7.53;;
74415;SDS011;62850;42.428;25.618;2023-06-22T04:05:06;9.98;;;7.03;;
74415;SDS011;62850;42.428;25.618;2023-06-22T04:07:33;10.98;;;7.20;;
74415;SDS011;62850;42.428;25.618;2023-06-22T04:10:00;12.88;;;6.72;;
74415;SDS011;62850;42.428;25.618;2023-06-22T04:12:26;14.00;;;8.40;;
74415;SDS011;62850;42.428;25.618;2023-06-22T04:14:52;12.10;;;7.90;;
74415;SDS011;62850;42.428;25.618;2023-06-22T04:17:17;18.92;;;9.95;;
74415;SDS011;62850;42.428;25.618;2023-06-22T04:19:44;18.48;;;9.50;;
74415;SDS011;62850;42.428;25.618;2023-06-22T04:22:10;21.52;;;10.65;;
74415;SDS011;62850;42.428;25.618;2023-06-22T04:24:36;18.02;;;9.00;;
74415;SDS011;62850;42.428;25.618;2023-06-22T04:27:02;18.70;;;10.40;;
74415;SDS011;62850;42.428;25.618;2023-06-22T04:29:29;17.90;;;8.82;;
74415;SDS011;62850;42.428;25.618;2023-06-22T04:31:56;17.80;;;8.93;;
74415;SDS011;62850;42.428;25.618;2023-06-22T04:34:23;21.23;;;11.10;;
74415;SDS011;62850;42.428;25.618;2023-06-22T04:36:53;26.00;;;10.88;;
74415;SDS011;62850;42.428;25.618;2023-06-22T04:39:19;21.58;;;14.27;;
74415;SDS011;62850;42.428;25.618;2023-06-22T04:41:45;16.40;;;9.82;;
74415;SDS011;62850;42.428;25.618;2023-06-22T04:44:12;20.88;;;10.68;;
74415;SDS011;62850;42.428;25.618;2023-06-22T04:46:39;19.30;;;11.68;;
74415;SDS011;62850;42.428;25.618;2023-06-22T04:51:41;21.25;;;11.23;;
74415;SDS011;62850;42.428;25.618;2023-06-22T04:54:08;23.50;;;11.00;;
74415;SDS011;62850;42.428;25.618;2023-06-22T04:56:35;15.90;;;9.45;;
74415;SDS011;62850;42.428;25.618;2023-06-22T04:59:02;18.60;;;9.77;;
74415;SDS011;62850;42.428;25.618;2023-06-22T05:01:28;18.17;;;9.93;;
74415;SDS011;62850;42.428;25.618;2023-06-22T05:03:57;14.23;;;9.20;;
74415;SDS011;62850;42.428;25.618;2023-06-22T05:06:26;15.40;;;8.98;;
74415;SDS011;62850;42.428;25.618;2023-06-22T05:08:53;19.77;;;10.50;;
74415;SDS011;62850;42.428;25.618;2023-06-22T05:11:28;13.07;;;9.68;;
74415;SDS011;62850;42.428;25.618;2023-06-22T05:13:54;19.52;;;9.90;;
74415;SDS011;62850;42.428;25.618;2023-06-22T05:16:21;12.85;;;8.90;;
74415;SDS011;62850;42.428;25.618;2023-06-22T05:18:52;16.35;;;9.32;;
74415;SDS011;62850;42.428;25.618;2023-06-22T05:21:23;21.67;;;10.48;;
74415;SDS011;62850;42.428;25.618;2023-06-22T05:23:50;17.65;;;9.85;;
74415;SDS011;62850;42.428;25.618;2023-06-22T05:26:17;18.15;;;10.73;;
74415;SDS011;62850;42.428;25.618;2023-06-22T05:28:44;19.92;;;10.82;;
74415;SDS011;62850;42.428;25.618;2023-06-22T05:31:13;22.58;;;10.25;;
74415;SDS011;62850;42.428;25.618;2023-06-22T05:33:40;24.00;;;10.55;;
74415;SDS011;62850;42.428;25.618;2023-06-22T05:36:06;25.00;;;11.93;;
74415;SDS011;62850;42.428;25.618;2023-06-22T05:38:34;22.95;;;11.23;;
74415;SDS011;62850;42.428;25.618;2023-06-22T05:41:00;26.48;;;11.32;;
74415;SDS011;62850;42.428;25.618;2023-06-22T05:43:26;18.88;;;12.18;;
74415;SDS011;62850;42.428;25.618;2023-06-22T05:45:52;22.38;;;12.90;;
74415;SDS011;62850;42.428;25.618;2023-06-22T05:48:18;22.42;;;12.35;;
74415;SDS011;62850;42.428;25.618;2023-06-22T05:50:44;25.58;;;12.27;;
74415;SDS011;62850;42.428;25.618;2023-06-22T05:53:09;20.02;;;12.93;;
74415;SDS011;62850;42.428;25.618;2023-06-22T05:55:35;25.42;;;12.50;;
74415;SDS011;62850;42.428;25.618;2023-06-22T05:58:01;26.05;;;12.98;;
74415;SDS011;62850;42.428;25.618;2023-06-22T06:00:28;21.67;;;12.23;;
74415;SDS011;62850;42.428;25.618;2023-06-22T06:02:54;18.75;;;11.43;;
74415;SDS011;62850;42.428;25.618;2023-06-22T06:05:20;18.50;;;11.13;;
74415;SDS011;62850;42.428;25.618;2023-06-22T06:07:45;17.30;;;11.18;;
74415;SDS011;62850;42.428;25.618;2023-06-22T06:10:12;26.88;;;12.50;;
74415;SDS011;62850;42.428;25.618;2023-06-22T06:12:38;28.73;;;16.10;;
74415;SDS011;62850;42.428;25.618;2023-06-22T06:15:04;25.75;;;14.25;;
74415;SDS011;62850;42.428;25.618;2023-06-22T06:17:30;17.88;;;11.25;;
74415;SDS011;62850;42.428;25.618;2023-06-22T06:19:56;23.55;;;12.38;;
74415;SDS011;62850;42.428;25.618;2023-06-22T06:22:22;18.67;;;10.63;;
74415;SDS011;62850;42.428;25.618;2023-06-22T06:24:48;16.55;;;9.88;;
74415;SDS011;62850;42.428;25.618;2023-06-22T06:27:15;13.27;;;10.20;;
74415;SDS011;62850;42.428;25.618;2023-06-22T06:29:43;19.75;;;10.73;;
74415;SDS011;62850;42.428;25.618;2023-06-22T06:32:10;14.30;;;9.80;;
74415;SDS011;62850;42.428;25.618;2023-06-22T06:34:38;15.65;;;10.07;;
74415;SDS011;62850;42.428;25.618;2023-06-22T06:37:05;13.73;;;9.07;;
74415;SDS011;62850;42.428;25.618;2023-06-22T06:39:32;20.65;;;10.32;;
74415;SDS011;62850;42.428;25.618;2023-06-22T06:41:58;15.40;;;9.15;;
74415;SDS011;62850;42.428;25.618;2023-06-22T06:44:24;18.20;;;10.70;;
74415;SDS011;62850;42.428;25.618;2023-06-22T06:46:49;48.67;;;22.42;;
74415;SDS011;62850;42.428;25.618;2023-06-22T06:49:15;45.15;;;19.88;;
74415;SDS011;62850;42.428;25.618;2023-06-22T06:51:40;20.98;;;11.57;;
74415;SDS011;62850;42.428;25.618;2023-06-22T06:54:06;14.82;;;9.10;;
74415;SDS011;62850;42.428;25.618;2023-06-22T06:56:32;45.70;;;21.38;;
74415;SDS011;62850;42.428;25.618;2023-06-22T06:58:58;20.20;;;9.68;;
74415;SDS011;62850;42.428;25.618;2023-06-22T07:01:23;15.32;;;8.57;;
74415;SDS011;62850;42.428;25.618;2023-06-22T07:03:49;11.32;;;8.10;;
74415;SDS011;62850;42.428;25.618;2023-06-22T07:06:15;13.52;;;9.05;;
74415;SDS011;62850;42.428;25.618;2023-06-22T07:08:41;11.93;;;8.40;;
74415;SDS011;62850;42.428;25.618;2023-06-22T07:11:08;14.38;;;9.02;;
74415;SDS011;62850;42.428;25.618;2023-06-22T07:13:34;11.20;;;7.47;;
74415;SDS011;62850;42.428;25.618;2023-06-22T07:15:59;13.75;;;7.95;;
74415;SDS011;62850;42.428;25.618;2023-06-22T07:18:25;12.77;;;7.85;;
74415;SDS011;62850;42.428;25.618;2023-06-22T07:20:51;12.50;;;7.95;;
74415;SDS011;62850;42.428;25.618;2023-06-22T07:23:17;11.00;;;7.88;;
74415;SDS011;62850;42.428;25.618;2023-06-22T07:25:43;11.65;;;8.52;;
74415;SDS011;62850;42.428;25.618;2023-06-22T07:28:10;12.13;;;9.20;;
74415;SDS011;62850;42.428;25.618;2023-06-22T07:30:37;12.60;;;9.60;;
74415;SDS011;62850;42.428;25.618;2023-06-22T07:33:03;14.77;;;9.63;;
74415;SDS011;62850;42.428;25.618;2023-06-22T07:35:33;14.27;;;8.48;;
74415;SDS011;62850;42.428;25.618;2023-06-22T07:37:59;12.48;;;9.57;;
74415;SDS011;62850;42.428;25.618;2023-06-22T07:40:25;14.50;;;9.38;;
74415;SDS011;62850;42.428;25.618;2023-06-22T07:42:51;12.20;;;8.68;;
74415;SDS011;62850;42.428;25.618;2023-06-22T07:45:17;13.75;;;8.57;;
74415;SDS011;62850;42.428;25.618;2023-06-22T07:47:43;11.57;;;9.05;;
74415;SDS011;62850;42.428;25.618;2023-06-22T07:50:09;12.98;;;8.48;;
74415;SDS011;62850;42.428;25.618;2023-06-22T07:52:35;11.60;;;8.23;;
74415;SDS011;62850;42.428;25.618;2023-06-22T07:55:01;13.43;;;7.82;;
74415;SDS011;62850;42.428;25.618;2023-06-22T07:57:27;11.10;;;8.38;;
74415;SDS011;62850;42.428;25.618;2023-06-22T07:59:59;11.60;;;8.60;;
74415;SDS011;62850;42.428;25.618;2023-06-22T08:02:25;12.77;;;7.90;;
74415;SDS011;62850;42.428;25.618;2023-06-22T08:04:51;8.60;;;7.28;;
74415;SDS011;62850;42.428;25.618;2023-06-22T08:07:17;11.85;;;7.38;;
74415;SDS011;62850;42.428;25.618;2023-06-22T08:09:48;12.57;;;8.02;;
74415;SDS011;62850;42.428;25.618;2023-06-22T08:12:15;11.70;;;7.75;;
74415;SDS011;62850;42.428;25.618;2023-06-22T08:14:42;11.23;;;7.85;;
74415;SDS011;62850;42.428;25.618;2023-06-22T08:17:11;10.10;;;7.47;;
74415;SDS011;62850;42.428;25.618;2023-06-22T08:19:37;13.82;;;8.90;;
74415;SDS011;62850;42.428;25.618;2023-06-22T08:22:04;12.68;;;9.23;;
74415;SDS011;62850;42.428;25.618;2023-06-22T08:24:30;10.85;;;7.80;;
74415;SDS011;62850;42.428;25.618;2023-06-22T08:26:57;11.50;;;8.32;;
74415;SDS011;62850;42.428;25.618;2023-06-22T08:29:23;10.02;;;6.82;;
74415;SDS011;62850;42.428;25.618;2023-06-22T08:31:49;12.40;;;8.25;;
74415;SDS011;62850;42.428;25.618;2023-06-22T08:34:15;10.45;;;7.82;;
74415;SDS011;62850;42.428;25.618;2023-06-22T08:36:47;9.68;;;7.40;;
74415;SDS011;62850;42.428;25.618;2023-06-22T08:39:18;8.95;;;6.35;;
74415;SDS011;62850;42.428;25.618;2023-06-22T08:41:45;11.55;;;8.13;;
74415;SDS011;62850;42.428;25.618;2023-06-22T08:44:12;11.10;;;8.40;;
74415;SDS011;62850;42.428;25.618;2023-06-22T08:46:39;15.32;;;8.82;;
74415;SDS011;62850;42.428;25.618;2023-06-22T08:49:06;10.75;;;8.02;;
74415;SDS011;62850;42.428;25.618;2023-06-22T08:51:32;10.93;;;7.68;;
74415;SDS011;62850;42.428;25.618;2023-06-22T08:53:59;10.32;;;7.72;;
74415;SDS011;62850;42.428;25.618;2023-06-22T08:56:25;11.38;;;8.10;;
74415;SDS011;62850;42.428;25.618;2023-06-22T08:58:51;10.18;;;7.63;;
74415;SDS011;62850;42.428;25.618;2023-06-22T09:01:17;11.07;;;7.90;;
74415;SDS011;62850;42.428;25.618;2023-06-22T09:03:44;10.57;;;7.38;;
74415;SDS011;62850;42.428;25.618;2023-06-22T09:06:19;12.13;;;7.50;;
74415;SDS011;62850;42.428;25.618;2023-06-22T09:08:46;10.75;;;7.45;;
74415;SDS011;62850;42.428;25.618;2023-06-22T09:11:12;13.45;;;8.32;;
74415;SDS011;62850;42.428;25.618;2023-06-22T09:13:38;9.27;;;7.43;;
74415;SDS011;62850;42.428;25.618;2023-06-22T09:16:04;11.57;;;7.55;;
74415;SDS011;62850;42.428;25.618;2023-06-22T09:18:30;9.77;;;8.25;;
74415;SDS011;62850;42.428;25.618;2023-06-22T09:20:56;13.45;;;9.38;;
74415;SDS011;62850;42.428;25.618;2023-06-22T09:23:22;28.60;;;13.52;;
74415;SDS011;62850;42.428;25.618;2023-06-22T09:25:48;22.33;;;12.60;;
74415;SDS011;62850;42.428;25.618;2023-06-22T09:28:14;19.15;;;11.05;;
74415;SDS011;62850;42.428;25.618;2023-06-22T09:30:40;11.52;;;8.60;;
74415;SDS011;62850;42.428;25.618;2023-06-22T09:33:06;13.15;;;8.23;;
74415;SDS011;62850;42.428;25.618;2023-06-22T09:35:32;11.60;;;8.52;;
74415;SDS011;62850;42.428;25.618;2023-06-22T09:37:59;13.77;;;8.98;;
74415;SDS011;62850;42.428;25.618;2023-06-22T09:40:25;14.05;;;8.88;;
74415;SDS011;62850;42.428;25.618;2023-06-22T09:42:51;13.55;;;9.15;;
74415;SDS011;62850;42.428;25.618;2023-06-22T09:45:17;9.88;;;7.78;;
74415;SDS011;62850;42.428;25.618;2023-06-22T09:47:43;8.90;;;7.93;;
74415;SDS011;62850;42.428;25.618;2023-06-22T09:50:10;10.60;;;8.60;;
74415;SDS011;62850;42.428;25.618;2023-06-22T09:52:36;9.05;;;7.85;;
74415;SDS011;62850;42.428;25.618;2023-06-22T09:55:02;9.77;;;8.30;;
74415;SDS011;62850;42.428;25.618;2023-06-22T09:57:29;12.05;;;7.65;;
74415;SDS011;62850;42.428;25.618;2023-06-22T09:59:55;11.27;;;7.80;;
74415;SDS011;62850;42.428;25.618;2023-06-22T10:02:21;8.98;;;7.55;;
74415;SDS011;62850;42.428;25.618;2023-06-22T10:04:47;9.82;;;8.10;;
74415;SDS011;62850;42.428;25.618;2023-06-22T10:07:13;11.15;;;7.88;;
74415;SDS011;62850;42.428;25.618;2023-06-22T10:09:40;10.30;;;7.97;;
74415;SDS011;62850;42.428;25.618;2023-06-22T10:12:06;9.80;;;7.45;;
74415;SDS011;62850;42.428;25.618;2023-06-22T10:14:34;9.45;;;7.90;;
74415;SDS011;62850;42.428;25.618;2023-06-22T10:17:01;12.23;;;7.72;;
74415;SDS011;62850;42.428;25.618;2023-06-22T10:19:28;12.52;;;8.05;;
74415;SDS011;62850;42.428;25.618;2023-06-22T10:21:54;10.35;;;7.65;;
74415;SDS011;62850;42.428;25.618;2023-06-22T10:24:20;10.65;;;7.10;;
74415;SDS011;62850;42.428;25.618;2023-06-22T10:26:46;12.00;;;8.25;;
74415;SDS011;62850;42.428;25.618;2023-06-22T10:29:12;10.18;;;8.18;;
74415;SDS011;62850;42.428;25.618;2023-06-22T10:31:38;11.18;;;8.18;;
74415;SDS011;62850;42.428;25.618;2023-06-22T10:34:04;10.50;;;7.80;;
74415;SDS011;62850;42.428;25.618;2023-06-22T10:36:30;12.82;;;8.40;;
74415;SDS011;62850;42.428;25.618;2023-06-22T10:38:57;9.80;;;7.85;;
74415;SDS011;62850;42.428;25.618;2023-06-22T10:41:24;12.25;;;7.22;;
74415;SDS011;62850;42.428;25.618;2023-06-22T10:43:50;13.73;;;7.85;;
74415;SDS011;62850;42.428;25.618;2023-06-22T10:46:17;13.38;;;7.85;;
74415;SDS011;62850;42.428;25.618;2023-06-22T10:48:43;10.10;;;7.78;;
74415;SDS011;62850;42.428;25.618;2023-06-22T10:51:09;12.13;;;7.65;;
74415;SDS011;62850;42.428;25.618;2023-06-22T10:53:35;10.32;;;7.70;;
74415;SDS011;62850;42.428;25.618;2023-06-22T10:56:01;10.15;;;8.23;;
74415;SDS011;62850;42.428;25.618;2023-06-22T10:58:27;11.45;;;8.05;;
74415;SDS011;62850;42.428;25.618;2023-06-22T11:00:53;10.40;;;7.43;;
74415;SDS011;62850;42.428;25.618;2023-06-22T11:03:19;10.38;;;7.85;;
74415;SDS011;62850;42.428;25.618;2023-06-22T11:05:46;11.13;;;8.60;;
74415;SDS011;62850;42.428;25.618;2023-06-22T11:08:13;10.20;;;7.50;;
74415;SDS011;62850;42.428;25.618;2023-06-22T11:10:39;10.90;;;8.05;;
74415;SDS011;62850;42.428;25.618;2023-06-22T11:13:05;11.82;;;8.38;;
74415;SDS011;62850;42.428;25.618;2023-06-22T11:15:35;12.02;;;8.63;;
74415;SDS011;62850;42.428;25.618;2023-06-22T11:18:01;10.70;;;7.63;;
74415;SDS011;62850;42.428;25.618;2023-06-22T11:20:27;13.38;;;8.00;;
74415;SDS011;62850;42.428;25.618;2023-06-22T11:22:53;9.50;;;7.80;;
74415;SDS011;62850;42.428;25.618;2023-06-22T11:25:18;11.45;;;7.70;;
74415;SDS011;62850;42.428;25.618;2023-06-22T11:27:45;8.00;;;7.00;;
74415;SDS011;62850;42.428;25.618;2023-06-22T11:30:10;9.00;;;7.07;;
74415;SDS011;62850;42.428;25.618;2023-06-22T11:32:36;11.77;;;7.57;;
74415;SDS011;62850;42.428;25.618;2023-06-22T11:35:03;10.20;;;6.72;;
74415;SDS011;62850;42.428;25.618;2023-06-22T11:37:29;10.43;;;7.15;;
74415;SDS011;62850;42.428;25.618;2023-06-22T11:39:55;12.60;;;6.60;;
74415;SDS011;62850;42.428;25.618;2023-06-22T11:42:21;9.25;;;6.68;;
74415;SDS011;62850;42.428;25.618;2023-06-22T11:44:49;10.15;;;6.65;;
74415;SDS011;62850;42.428;25.618;2023-06-22T11:47:15;7.05;;;6.35;;
74415;SDS011;62850;42.428;25.618;2023-06-22T11:49:41;9.05;;;7.05;;
74415;SDS011;62850;42.428;25.618;2023-06-22T11:52:07;8.95;;;7.32;;
74415;SDS011;62850;42.428;25.618;2023-06-22T11:54:33;8.13;;;6.03;;
74415;SDS011;62850;42.428;25.618;2023-06-22T11:56:59;9.13;;;6.45;;
74415;SDS011;62850;42.428;25.618;2023-06-22T11:59:25;7.90;;;7.00;;
74415;SDS011;62850;42.428;25.618;2023-06-22T12:01:50;10.80;;;6.50;;
74415;SDS011;62850;42.428;25.618;2023-06-22T12:04:16;9.23;;;6.18;;
74415;SDS011;62850;42.428;25.618;2023-06-22T12:06:43;7.10;;;5.70;;
74415;SDS011;62850;42.428;25.618;2023-06-22T12:09:10;8.18;;;6.53;;
74415;SDS011;62850;42.428;25.618;2023-06-22T12:11:39;7.28;;;6.22;;
74415;SDS011;62850;42.428;25.618;2023-06-22T12:14:04;9.32;;;6.63;;
74415;SDS011;62850;42.428;25.618;2023-06-22T12:16:30;8.82;;;6.03;;
74415;SDS011;62850;42.428;25.618;2023-06-22T12:18:56;8.38;;;6.10;;
74415;SDS011;62850;42.428;25.618;2023-06-22T12:21:22;8.05;;;6.13;;
74415;SDS011;62850;42.428;25.618;2023-06-22T12:23:48;10.00;;;6.72;;
74415;SDS011;62850;42.428;25.618;2023-06-22T12:26:14;10.35;;;6.43;;
74415;SDS011;62850;42.428;25.618;2023-06-22T12:28:40;7.22;;;5.93;;
74415;SDS011;62850;42.428;25.618;2023-06-22T12:31:06;7.53;;;6.07;;
74415;SDS011;62850;42.428;25.618;2023-06-22T12:33:32;27.60;;;21.08;;
74415;SDS011;62850;42.428;25.618;2023-06-22T12:35:58;7.88;;;6.20;;
74415;SDS011;62850;42.428;25.618;2023-06-22T12:38:24;8.63;;;6.20;;
74415;SDS011;62850;42.428;25.618;2023-06-22T12:40:51;8.90;;;5.97;;
74415;SDS011;62850;42.428;25.618;2023-06-22T12:43:17;8.60;;;5.63;;
74415;SDS011;62850;42.428;25.618;2023-06-22T12:45:43;6.03;;;4.80;;
74415;SDS011;62850;42.428;25.618;2023-06-22T12:48:09;7.30;;;6.00;;
74415;SDS011;62850;42.428;25.618;2023-06-22T12:50:39;7.38;;;5.72;;
74415;SDS011;62850;42.428;25.618;2023-06-22T12:53:06;8.40;;;5.60;;
74415;SDS011;62850;42.428;25.618;2023-06-22T12:55:32;7.25;;;5.10;;
74415;SDS011;62850;42.428;25.618;2023-06-22T12:57:58;8.68;;;5.88;;
74415;SDS011;62850;42.428;25.618;2023-06-22T13:00:24;8.02;;;5.35;;
74415;SDS011;62850;42.428;25.618;2023-06-22T13:02:50;6.35;;;5.28;;
74415;SDS011;62850;42.428;25.618;2023-06-22T13:05:17;7.63;;;5.57;;
74415;SDS011;62850;42.428;25.618;2023-06-22T13:07:43;9.23;;;5.13;;
74415;SDS011;62850;42.428;25.618;2023-06-22T13:10:09;8.77;;;5.50;;
74415;SDS011;62850;42.428;25.618;2023-06-22T13:12:36;8.85;;;5.70;;
74415;SDS011;62850;42.428;25.618;2023-06-22T13:15:02;6.88;;;5.30;;
74415;SDS011;62850;42.428;25.618;2023-06-22T13:17:28;6.82;;;5.30;;
74415;SDS011;62850;42.428;25.618;2023-06-22T13:19:54;6.03;;;4.72;;
74415;SDS011;62850;42.428;25.618;2023-06-22T13:22:33;9.90;;;5.55;;
74415;SDS011;62850;42.428;25.618;2023-06-22T13:25:05;7.63;;;5.20;;
74415;SDS011;62850;42.428;25.618;2023-06-22T13:27:31;7.05;;;5.72;;
74415;SDS011;62850;42.428;25.618;2023-06-22T13:29:57;10.60;;;5.18;;
74415;SDS011;62850;42.428;25.618;2023-06-22T13:32:23;6.28;;;5.63;;
74415;SDS011;62850;42.428;25.618;2023-06-22T13:34:50;6.70;;;5.20;;
74415;SDS011;62850;42.428;25.618;2023-06-22T13:37:18;10.20;;;6.88;;
74415;SDS011;62850;42.428;25.618;2023-06-22T13:39:44;9.05;;;5.45;;
74415;SDS011;62850;42.428;25.618;2023-06-22T13:42:10;7.93;;;5.65;;
74415;SDS011;62850;42.428;25.618;2023-06-22T13:44:36;6.22;;;4.90;;
74415;SDS011;62850;42.428;25.618;2023-06-22T13:47:02;9.77;;;5.65;;
74415;SDS011;62850;42.428;25.618;2023-06-22T13:49:30;6.72;;;5.20;;
74415;SDS011;62850;42.428;25.618;2023-06-22T13:51:55;6.40;;;5.30;;
74415;SDS011;62850;42.428;25.618;2023-06-22T13:54:21;6.88;;;5.25;;
74415;SDS011;62850;42.428;25.618;2023-06-22T13:56:47;7.30;;;5.65;;
74415;SDS011;62850;42.428;25.618;2023-06-22T13:59:13;8.80;;;5.18;;
74415;SDS011;62850;42.428;25.618;2023-06-22T14:01:39;6.28;;;4.97;;
74415;SDS011;62850;42.428;25.618;2023-06-22T14:04:06;5.95;;;5.05;;
74415;SDS011;62850;42.428;25.618;2023-06-22T14:06:31;7.57;;;4.97;;
74415;SDS011;62850;42.428;25.618;2023-06-22T14:08:58;9.25;;;5.43;;
74415;SDS011;62850;42.428;25.618;2023-06-22T14:11:24;9.30;;;6.22;;
74415;SDS011;62850;42.428;25.618;2023-06-22T14:13:50;6.85;;;5.03;;
74415;SDS011;62850;42.428;25.618;2023-06-22T14:16:17;7.90;;;4.93;;
74415;SDS011;62850;42.428;25.618;2023-06-22T14:18:44;8.27;;;4.95;;
74415;SDS011;62850;42.428;25.618;2023-06-22T14:21:10;6.03;;;5.10;;
74415;SDS011;62850;42.428;25.618;2023-06-22T14:23:36;6.47;;;5.20;;
74415;SDS011;62850;42.428;25.618;2023-06-22T14:26:03;11.10;;;6.03;;
74415;SDS011;62850;42.428;25.618;2023-06-22T14:28:29;9.15;;;4.97;;
74415;SDS011;62850;42.428;25.618;2023-06-22T14:30:55;9.98;;;5.90;;
74415;SDS011;62850;42.428;25.618;2023-06-22T14:33:21;7.47;;;5.47;;